sensor_id;sensor_type;location;lat;lon;timestamp;P1;durP1;ratioP1;P2;durP2;ratioP2
6432;SDS011;3249;42.690;23.260;2022-12-24T00:01:38;132.77;;;80.73;;
6432;SDS011;3249;42.690;23.260;2022-12-24T00:04:07;134.40;;;77.57;;
6432;SDS011;3249;42.690;23.260;2022-12-24T00:06:38;130.27;;;79.53;;
6432;SDS011;3249;42.690;23.260;2022-12-24T00:09:08;122.40;;;74.20;;
6432;SDS011;3249;42.690;23.260;2022-12-24T00:11:37;112.60;;;67.70;;
6432;SDS011;3249;42.690;23.260;2022-12-24T00:14:06;116.47;;;71.03;;
6432;SDS011;3249;42.690;23.260;2022-12-24T00:16:35;111.60;;;68.00;;
6432;SDS011;3249;42.690;23.260;2022-12-24T00:19:04;105.63;;;63.27;;
6432;SDS011;3249;42.690;23.260;2022-12-24T00:21:33;105.13;;;62.77;;
6432;SDS011;3249;42.690;23.260;2022-12-24T00:24:05;93.47;;;59.23;;
6432;SDS011;3249;42.690;23.260;2022-12-24T00:26:34;99.53;;;56.63;;
6432;SDS011;3249;42.690;23.260;2022-12-24T00:29:03;89.70;;;54.50;;
6432;SDS011;3249;42.690;23.260;2022-12-24T00:31:32;94.67;;;55.23;;
6432;SDS011;3249;42.690;23.260;2022-12-24T00:34:01;80.77;;;51.87;;
6432;SDS011;3249;42.690;23.260;2022-12-24T00:36:30;86.10;;;51.73;;
6432;SDS011;3249;42.690;23.260;2022-12-24T00:38:59;79.47;;;50.00;;
6432;SDS011;3249;42.690;23.260;2022-12-24T00:41:30;81.70;;;48.83;;
6432;SDS011;3249;42.690;23.260;2022-12-24T00:44:00;77.47;;;50.20;;
6432;SDS011;3249;42.690;23.260;2022-12-24T00:46:34;79.87;;;47.77;;
6432;SDS011;3249;42.690;23.260;2022-12-24T00:49:05;79.97;;;48.10;;
6432;SDS011;3249;42.690;23.260;2022-12-24T00:51:35;79.47;;;46.47;;
6432;SDS011;3249;42.690;23.260;2022-12-24T00:54:04;73.63;;;48.07;;
6432;SDS011;3249;42.690;23.260;2022-12-24T00:56:36;74.37;;;44.97;;
6432;SDS011;3249;42.690;23.260;2022-12-24T00:59:05;70.33;;;45.00;;
6432;SDS011;3249;42.690;23.260;2022-12-24T01:01:34;76.03;;;45.57;;
6432;SDS011;3249;42.690;23.260;2022-12-24T01:04:03;78.17;;;46.30;;
6432;SDS011;3249;42.690;23.260;2022-12-24T01:06:44;70.10;;;41.87;;
6432;SDS011;3249;42.690;23.260;2022-12-24T01:09:13;68.83;;;41.30;;
6432;SDS011;3249;42.690;23.260;2022-12-24T01:11:45;65.97;;;41.40;;
6432;SDS011;3249;42.690;23.260;2022-12-24T01:14:14;65.63;;;41.00;;
6432;SDS011;3249;42.690;23.260;2022-12-24T01:16:42;63.63;;;40.23;;
6432;SDS011;3249;42.690;23.260;2022-12-24T01:19:11;56.37;;;39.33;;
6432;SDS011;3249;42.690;23.260;2022-12-24T01:21:40;59.70;;;39.10;;
6432;SDS011;3249;42.690;23.260;2022-12-24T01:24:10;58.87;;;38.73;;
6432;SDS011;3249;42.690;23.260;2022-12-24T01:26:41;55.03;;;37.97;;
6432;SDS011;3249;42.690;23.260;2022-12-24T01:29:13;58.20;;;37.53;;
6432;SDS011;3249;42.690;23.260;2022-12-24T01:31:43;59.50;;;37.80;;
6432;SDS011;3249;42.690;23.260;2022-12-24T01:34:12;62.27;;;40.03;;
6432;SDS011;3249;42.690;23.260;2022-12-24T01:36:40;55.17;;;36.27;;
6432;SDS011;3249;42.690;23.260;2022-12-24T01:39:09;58.77;;;35.70;;
6432;SDS011;3249;42.690;23.260;2022-12-24T01:41:38;58.43;;;36.90;;
6432;SDS011;3249;42.690;23.260;2022-12-24T01:44:23;61.10;;;38.97;;
6432;SDS011;3249;42.690;23.260;2022-12-24T01:46:57;53.27;;;35.97;;
6432;SDS011;3249;42.690;23.260;2022-12-24T01:49:34;51.90;;;34.67;;
6432;SDS011;3249;42.690;23.260;2022-12-24T01:52:07;51.23;;;34.53;;
6432;SDS011;3249;42.690;23.260;2022-12-24T01:54:39;50.00;;;33.87;;
6432;SDS011;3249;42.690;23.260;2022-12-24T01:57:12;49.10;;;33.43;;
6432;SDS011;3249;42.690;23.260;2022-12-24T01:59:50;51.50;;;33.57;;
6432;SDS011;3249;42.690;23.260;2022-12-24T02:02:22;48.67;;;32.67;;
6432;SDS011;3249;42.690;23.260;2022-12-24T02:04:53;59.63;;;32.67;;
6432;SDS011;3249;42.690;23.260;2022-12-24T02:07:26;47.03;;;32.10;;
6432;SDS011;3249;42.690;23.260;2022-12-24T02:09:56;53.53;;;33.33;;
6432;SDS011;3249;42.690;23.260;2022-12-24T02:12:27;47.47;;;31.20;;
6432;SDS011;3249;42.690;23.260;2022-12-24T02:15:02;53.90;;;31.43;;
6432;SDS011;3249;42.690;23.260;2022-12-24T02:17:33;51.90;;;33.57;;
6432;SDS011;3249;42.690;23.260;2022-12-24T02:23:19;41.73;;;29.87;;
6432;SDS011;3249;42.690;23.260;2022-12-24T02:26:10;41.80;;;30.27;;
6432;SDS011;3249;42.690;23.260;2022-12-24T02:28:56;47.60;;;29.77;;
6432;SDS011;3249;42.690;23.260;2022-12-24T02:31:46;46.93;;;28.87;;
6432;SDS011;3249;42.690;23.260;2022-12-24T02:34:21;44.43;;;28.67;;
6432;SDS011;3249;42.690;23.260;2022-12-24T02:36:56;43.67;;;28.37;;
6432;SDS011;3249;42.690;23.260;2022-12-24T02:39:30;46.63;;;29.57;;
6432;SDS011;3249;42.690;23.260;2022-12-24T02:42:04;46.03;;;29.23;;
6432;SDS011;3249;42.690;23.260;2022-12-24T02:44:36;48.00;;;30.10;;
6432;SDS011;3249;42.690;23.260;2022-12-24T02:47:12;36.23;;;25.80;;
6432;SDS011;3249;42.690;23.260;2022-12-24T02:49:43;41.80;;;29.03;;
6432;SDS011;3249;42.690;23.260;2022-12-24T02:54:59;42.97;;;29.47;;
6432;SDS011;3249;42.690;23.260;2022-12-24T02:57:33;43.87;;;30.67;;
6432;SDS011;3249;42.690;23.260;2022-12-24T03:00:13;42.80;;;29.83;;
6432;SDS011;3249;42.690;23.260;2022-12-24T03:02:55;45.17;;;28.83;;
6432;SDS011;3249;42.690;23.260;2022-12-24T03:05:37;43.67;;;29.10;;
6432;SDS011;3249;42.690;23.260;2022-12-24T03:08:14;48.37;;;30.17;;
6432;SDS011;3249;42.690;23.260;2022-12-24T03:10:52;47.67;;;30.27;;
6432;SDS011;3249;42.690;23.260;2022-12-24T03:13:24;40.47;;;28.80;;
6432;SDS011;3249;42.690;23.260;2022-12-24T03:15:54;44.57;;;30.53;;
6432;SDS011;3249;42.690;23.260;2022-12-24T03:18:26;46.80;;;31.03;;
6432;SDS011;3249;42.690;23.260;2022-12-24T03:20:59;48.13;;;29.73;;
6432;SDS011;3249;42.690;23.260;2022-12-24T03:23:33;40.70;;;29.27;;
6432;SDS011;3249;42.690;23.260;2022-12-24T03:26:04;44.40;;;29.83;;
6432;SDS011;3249;42.690;23.260;2022-12-24T03:28:36;40.93;;;28.60;;
6432;SDS011;3249;42.690;23.260;2022-12-24T03:31:06;44.80;;;30.07;;
6432;SDS011;3249;42.690;23.260;2022-12-24T03:33:39;47.43;;;31.50;;
6432;SDS011;3249;42.690;23.260;2022-12-24T03:36:08;49.63;;;30.97;;
6432;SDS011;3249;42.690;23.260;2022-12-24T03:38:38;45.23;;;30.27;;
6432;SDS011;3249;42.690;23.260;2022-12-24T03:41:07;42.37;;;28.97;;
6432;SDS011;3249;42.690;23.260;2022-12-24T03:43:36;45.97;;;28.67;;
6432;SDS011;3249;42.690;23.260;2022-12-24T03:46:06;46.47;;;31.43;;
6432;SDS011;3249;42.690;23.260;2022-12-24T03:48:35;61.40;;;39.33;;
6432;SDS011;3249;42.690;23.260;2022-12-24T03:51:13;69.20;;;40.07;;
6432;SDS011;3249;42.690;23.260;2022-12-24T03:53:45;91.07;;;54.50;;
6432;SDS011;3249;42.690;23.260;2022-12-24T03:56:14;60.13;;;36.80;;
6432;SDS011;3249;42.690;23.260;2022-12-24T03:58:43;108.20;;;62.77;;
6432;SDS011;3249;42.690;23.260;2022-12-24T04:01:12;47.87;;;33.03;;
6432;SDS011;3249;42.690;23.260;2022-12-24T04:03:44;86.73;;;52.07;;
6432;SDS011;3249;42.690;23.260;2022-12-24T04:06:14;96.57;;;54.53;;
6432;SDS011;3249;42.690;23.260;2022-12-24T04:08:44;79.93;;;53.40;;
6432;SDS011;3249;42.690;23.260;2022-12-24T04:11:14;69.03;;;43.67;;
6432;SDS011;3249;42.690;23.260;2022-12-24T04:13:44;71.80;;;45.30;;
6432;SDS011;3249;42.690;23.260;2022-12-24T04:16:14;67.40;;;44.43;;
6432;SDS011;3249;42.690;23.260;2022-12-24T04:18:46;72.50;;;41.67;;
6432;SDS011;3249;42.690;23.260;2022-12-24T04:21:15;60.63;;;39.70;;
6432;SDS011;3249;42.690;23.260;2022-12-24T04:23:44;61.17;;;39.73;;
6432;SDS011;3249;42.690;23.260;2022-12-24T04:26:13;55.03;;;35.77;;
6432;SDS011;3249;42.690;23.260;2022-12-24T04:28:42;49.57;;;33.10;;
6432;SDS011;3249;42.690;23.260;2022-12-24T04:31:12;46.23;;;32.13;;
6432;SDS011;3249;42.690;23.260;2022-12-24T04:33:42;45.93;;;29.70;;
6432;SDS011;3249;42.690;23.260;2022-12-24T04:36:15;71.57;;;43.30;;
6432;SDS011;3249;42.690;23.260;2022-12-24T04:38:45;55.80;;;37.30;;
6432;SDS011;3249;42.690;23.260;2022-12-24T04:41:15;54.23;;;36.20;;
6432;SDS011;3249;42.690;23.260;2022-12-24T04:43:46;61.50;;;39.67;;
6432;SDS011;3249;42.690;23.260;2022-12-24T04:46:16;50.77;;;33.70;;
6432;SDS011;3249;42.690;23.260;2022-12-24T04:48:49;57.87;;;42.33;;
6432;SDS011;3249;42.690;23.260;2022-12-24T04:51:20;60.30;;;40.33;;
6432;SDS011;3249;42.690;23.260;2022-12-24T04:53:49;71.53;;;45.90;;
6432;SDS011;3249;42.690;23.260;2022-12-24T04:56:19;74.50;;;47.70;;
6432;SDS011;3249;42.690;23.260;2022-12-24T04:58:49;65.10;;;43.37;;
6432;SDS011;3249;42.690;23.260;2022-12-24T05:01:19;78.13;;;49.60;;
6432;SDS011;3249;42.690;23.260;2022-12-24T05:03:52;60.03;;;39.43;;
6432;SDS011;3249;42.690;23.260;2022-12-24T05:06:23;73.40;;;48.33;;
6432;SDS011;3249;42.690;23.260;2022-12-24T05:08:54;64.20;;;43.23;;
6432;SDS011;3249;42.690;23.260;2022-12-24T05:11:23;57.80;;;40.63;;
6432;SDS011;3249;42.690;23.260;2022-12-24T05:13:52;90.03;;;54.90;;
6432;SDS011;3249;42.690;23.260;2022-12-24T05:16:22;76.57;;;52.30;;
6432;SDS011;3249;42.690;23.260;2022-12-24T05:18:54;77.97;;;51.67;;
6432;SDS011;3249;42.690;23.260;2022-12-24T05:21:23;73.63;;;48.27;;
6432;SDS011;3249;42.690;23.260;2022-12-24T05:23:52;82.57;;;52.17;;
6432;SDS011;3249;42.690;23.260;2022-12-24T05:26:34;86.17;;;56.87;;
6432;SDS011;3249;42.690;23.260;2022-12-24T05:29:05;81.93;;;54.50;;
6432;SDS011;3249;42.690;23.260;2022-12-24T05:31:36;78.37;;;51.50;;
6432;SDS011;3249;42.690;23.260;2022-12-24T05:34:09;86.37;;;57.00;;
6432;SDS011;3249;42.690;23.260;2022-12-24T05:36:39;85.30;;;56.13;;
6432;SDS011;3249;42.690;23.260;2022-12-24T05:39:09;76.63;;;50.20;;
6432;SDS011;3249;42.690;23.260;2022-12-24T05:41:41;77.30;;;50.30;;
6432;SDS011;3249;42.690;23.260;2022-12-24T05:44:11;78.50;;;52.17;;
6432;SDS011;3249;42.690;23.260;2022-12-24T05:46:40;74.60;;;49.17;;
6432;SDS011;3249;42.690;23.260;2022-12-24T05:49:12;78.13;;;52.83;;
6432;SDS011;3249;42.690;23.260;2022-12-24T05:51:41;91.73;;;58.60;;
6432;SDS011;3249;42.690;23.260;2022-12-24T05:54:10;82.03;;;52.43;;
6432;SDS011;3249;42.690;23.260;2022-12-24T05:56:39;91.57;;;60.87;;
6432;SDS011;3249;42.690;23.260;2022-12-24T05:59:08;89.80;;;56.53;;
6432;SDS011;3249;42.690;23.260;2022-12-24T06:01:37;94.30;;;62.50;;
6432;SDS011;3249;42.690;23.260;2022-12-24T06:04:12;87.63;;;55.37;;
6432;SDS011;3249;42.690;23.260;2022-12-24T06:06:41;99.43;;;61.80;;
6432;SDS011;3249;42.690;23.260;2022-12-24T06:09:10;99.60;;;66.43;;
6432;SDS011;3249;42.690;23.260;2022-12-24T06:11:39;88.20;;;59.63;;
6432;SDS011;3249;42.690;23.260;2022-12-24T06:14:08;103.70;;;65.73;;
6432;SDS011;3249;42.690;23.260;2022-12-24T06:16:37;151.30;;;89.40;;
6432;SDS011;3249;42.690;23.260;2022-12-24T06:19:06;140.30;;;87.37;;
6432;SDS011;3249;42.690;23.260;2022-12-24T06:21:37;146.13;;;94.53;;
6432;SDS011;3249;42.690;23.260;2022-12-24T06:24:07;127.57;;;84.07;;
6432;SDS011;3249;42.690;23.260;2022-12-24T06:26:36;128.30;;;85.37;;
6432;SDS011;3249;42.690;23.260;2022-12-24T06:29:04;108.80;;;70.40;;
6432;SDS011;3249;42.690;23.260;2022-12-24T06:31:34;106.87;;;71.23;;
6432;SDS011;3249;42.690;23.260;2022-12-24T06:34:03;93.30;;;57.83;;
6432;SDS011;3249;42.690;23.260;2022-12-24T06:36:32;102.83;;;61.83;;
6432;SDS011;3249;42.690;23.260;2022-12-24T06:39:04;96.07;;;58.23;;
6432;SDS011;3249;42.690;23.260;2022-12-24T06:41:32;77.73;;;50.53;;
6432;SDS011;3249;42.690;23.260;2022-12-24T06:44:02;80.37;;;51.00;;
6432;SDS011;3249;42.690;23.260;2022-12-24T06:46:31;81.90;;;48.87;;
6432;SDS011;3249;42.690;23.260;2022-12-24T06:48:59;71.10;;;49.80;;
6432;SDS011;3249;42.690;23.260;2022-12-24T06:51:28;86.70;;;57.77;;
6432;SDS011;3249;42.690;23.260;2022-12-24T06:53:57;89.60;;;57.93;;
6432;SDS011;3249;42.690;23.260;2022-12-24T06:56:29;89.13;;;57.57;;
6432;SDS011;3249;42.690;23.260;2022-12-24T06:58:58;87.80;;;60.67;;
6432;SDS011;3249;42.690;23.260;2022-12-24T07:01:27;96.73;;;61.13;;
6432;SDS011;3249;42.690;23.260;2022-12-24T07:03:56;90.13;;;57.90;;
6432;SDS011;3249;42.690;23.260;2022-12-24T07:06:25;94.40;;;61.97;;
6432;SDS011;3249;42.690;23.260;2022-12-24T07:08:56;95.90;;;59.40;;
6432;SDS011;3249;42.690;23.260;2022-12-24T07:11:25;196.73;;;127.37;;
6432;SDS011;3249;42.690;23.260;2022-12-24T07:13:57;414.83;;;281.03;;
6432;SDS011;3249;42.690;23.260;2022-12-24T07:16:26;450.57;;;315.17;;
6432;SDS011;3249;42.690;23.260;2022-12-24T07:18:54;442.73;;;311.23;;
6432;SDS011;3249;42.690;23.260;2022-12-24T07:21:23;430.20;;;296.47;;
6432;SDS011;3249;42.690;23.260;2022-12-24T07:23:52;386.17;;;257.00;;
6432;SDS011;3249;42.690;23.260;2022-12-24T07:26:21;331.83;;;212.97;;
6432;SDS011;3249;42.690;23.260;2022-12-24T07:28:50;260.20;;;171.37;;
6432;SDS011;3249;42.690;23.260;2022-12-24T07:31:22;239.07;;;152.20;;
6432;SDS011;3249;42.690;23.260;2022-12-24T07:33:51;215.47;;;134.97;;
6432;SDS011;3249;42.690;23.260;2022-12-24T07:36:20;201.53;;;132.73;;
6432;SDS011;3249;42.690;23.260;2022-12-24T07:38:50;170.73;;;107.43;;
6432;SDS011;3249;42.690;23.260;2022-12-24T07:41:18;176.53;;;116.73;;
6432;SDS011;3249;42.690;23.260;2022-12-24T07:43:47;155.50;;;99.60;;
6432;SDS011;3249;42.690;23.260;2022-12-24T07:46:18;148.93;;;96.00;;
6432;SDS011;3249;42.690;23.260;2022-12-24T07:48:50;170.80;;;112.13;;
6432;SDS011;3249;42.690;23.260;2022-12-24T07:51:21;196.90;;;129.00;;
6432;SDS011;3249;42.690;23.260;2022-12-24T07:53:51;178.87;;;117.77;;
6432;SDS011;3249;42.690;23.260;2022-12-24T07:56:20;256.90;;;164.90;;
6432;SDS011;3249;42.690;23.260;2022-12-24T07:58:49;247.60;;;164.37;;
6432;SDS011;3249;42.690;23.260;2022-12-24T08:01:22;286.97;;;188.33;;
6432;SDS011;3249;42.690;23.260;2022-12-24T08:03:50;297.13;;;203.57;;
6432;SDS011;3249;42.690;23.260;2022-12-24T08:06:20;272.30;;;184.63;;
6432;SDS011;3249;42.690;23.260;2022-12-24T08:08:52;239.73;;;162.43;;
6432;SDS011;3249;42.690;23.260;2022-12-24T08:11:23;234.30;;;154.73;;
6432;SDS011;3249;42.690;23.260;2022-12-24T08:13:53;224.30;;;158.07;;
6432;SDS011;3249;42.690;23.260;2022-12-24T08:16:26;235.30;;;166.10;;
6432;SDS011;3249;42.690;23.260;2022-12-24T08:18:55;210.50;;;145.50;;
6432;SDS011;3249;42.690;23.260;2022-12-24T08:21:24;163.17;;;118.87;;
6432;SDS011;3249;42.690;23.260;2022-12-24T08:23:53;158.40;;;107.87;;
6432;SDS011;3249;42.690;23.260;2022-12-24T08:26:22;129.00;;;88.50;;
6432;SDS011;3249;42.690;23.260;2022-12-24T08:28:51;108.13;;;74.93;;
6432;SDS011;3249;42.690;23.260;2022-12-24T08:31:20;80.97;;;54.10;;
6432;SDS011;3249;42.690;23.260;2022-12-24T08:33:51;80.53;;;53.13;;
6432;SDS011;3249;42.690;23.260;2022-12-24T08:36:20;68.90;;;45.10;;
6432;SDS011;3249;42.690;23.260;2022-12-24T08:38:49;71.90;;;48.67;;
6432;SDS011;3249;42.690;23.260;2022-12-24T08:41:18;70.47;;;46.43;;
6432;SDS011;3249;42.690;23.260;2022-12-24T08:43:47;71.50;;;48.23;;
6432;SDS011;3249;42.690;23.260;2022-12-24T08:46:16;81.37;;;48.77;;
6432;SDS011;3249;42.690;23.260;2022-12-24T08:48:45;68.53;;;46.53;;
6432;SDS011;3249;42.690;23.260;2022-12-24T08:51:16;69.27;;;46.70;;
6432;SDS011;3249;42.690;23.260;2022-12-24T08:53:45;75.03;;;47.37;;
6432;SDS011;3249;42.690;23.260;2022-12-24T08:56:15;75.10;;;50.57;;
6432;SDS011;3249;42.690;23.260;2022-12-24T08:58:44;128.80;;;94.77;;
6432;SDS011;3249;42.690;23.260;2022-12-24T09:01:16;84.43;;;60.40;;
6432;SDS011;3249;42.690;23.260;2022-12-24T09:03:48;75.57;;;54.40;;
6432;SDS011;3249;42.690;23.260;2022-12-24T09:06:20;74.33;;;48.10;;
6432;SDS011;3249;42.690;23.260;2022-12-24T09:08:49;61.33;;;42.73;;
6432;SDS011;3249;42.690;23.260;2022-12-24T09:11:18;68.67;;;44.23;;
6432;SDS011;3249;42.690;23.260;2022-12-24T09:13:47;61.20;;;43.40;;
6432;SDS011;3249;42.690;23.260;2022-12-24T09:16:16;59.77;;;41.87;;
6432;SDS011;3249;42.690;23.260;2022-12-24T09:18:46;56.70;;;39.57;;
6432;SDS011;3249;42.690;23.260;2022-12-24T09:21:15;58.33;;;42.07;;
6432;SDS011;3249;42.690;23.260;2022-12-24T09:23:47;62.87;;;42.17;;
6432;SDS011;3249;42.690;23.260;2022-12-24T09:26:17;61.60;;;42.57;;
6432;SDS011;3249;42.690;23.260;2022-12-24T09:28:48;58.90;;;39.53;;
6432;SDS011;3249;42.690;23.260;2022-12-24T09:31:18;60.67;;;42.90;;
6432;SDS011;3249;42.690;23.260;2022-12-24T09:33:47;73.90;;;52.97;;
6432;SDS011;3249;42.690;23.260;2022-12-24T09:36:17;79.17;;;54.63;;
6432;SDS011;3249;42.690;23.260;2022-12-24T09:38:49;70.50;;;50.87;;
6432;SDS011;3249;42.690;23.260;2022-12-24T09:41:23;62.93;;;48.27;;
6432;SDS011;3249;42.690;23.260;2022-12-24T09:44:02;59.43;;;43.47;;
6432;SDS011;3249;42.690;23.260;2022-12-24T09:46:36;68.73;;;48.40;;
6432;SDS011;3249;42.690;23.260;2022-12-24T09:49:09;69.17;;;49.83;;
6432;SDS011;3249;42.690;23.260;2022-12-24T09:51:44;98.13;;;66.13;;
6432;SDS011;3249;42.690;23.260;2022-12-24T09:54:21;107.07;;;70.53;;
6432;SDS011;3249;42.690;23.260;2022-12-24T09:56:53;137.63;;;93.70;;
6432;SDS011;3249;42.690;23.260;2022-12-24T09:59:25;168.97;;;112.33;;
6432;SDS011;3249;42.690;23.260;2022-12-24T10:02:00;169.93;;;116.43;;
6432;SDS011;3249;42.690;23.260;2022-12-24T10:04:29;207.40;;;138.83;;
6432;SDS011;3249;42.690;23.260;2022-12-24T10:07:01;263.10;;;190.80;;
6432;SDS011;3249;42.690;23.260;2022-12-24T10:09:39;255.27;;;168.63;;
6432;SDS011;3249;42.690;23.260;2022-12-24T10:12:18;204.00;;;136.63;;
6432;SDS011;3249;42.690;23.260;2022-12-24T10:14:54;185.80;;;121.50;;
6432;SDS011;3249;42.690;23.260;2022-12-24T10:17:34;190.30;;;121.67;;
6432;SDS011;3249;42.690;23.260;2022-12-24T10:20:19;156.07;;;110.73;;
6432;SDS011;3249;42.690;23.260;2022-12-24T10:22:58;131.83;;;91.17;;
6432;SDS011;3249;42.690;23.260;2022-12-24T10:25:37;146.97;;;103.87;;
6432;SDS011;3249;42.690;23.260;2022-12-24T10:28:13;160.93;;;107.07;;
6432;SDS011;3249;42.690;23.260;2022-12-24T10:30:46;167.90;;;109.80;;
6432;SDS011;3249;42.690;23.260;2022-12-24T10:33:19;146.87;;;96.53;;
6432;SDS011;3249;42.690;23.260;2022-12-24T10:35:54;162.20;;;102.87;;
6432;SDS011;3249;42.690;23.260;2022-12-24T10:38:26;147.83;;;97.77;;
6432;SDS011;3249;42.690;23.260;2022-12-24T10:40:58;146.73;;;96.80;;
6432;SDS011;3249;42.690;23.260;2022-12-24T10:43:28;163.27;;;105.67;;
6432;SDS011;3249;42.690;23.260;2022-12-24T10:45:58;160.50;;;108.10;;
6432;SDS011;3249;42.690;23.260;2022-12-24T10:48:33;197.17;;;136.50;;
6432;SDS011;3249;42.690;23.260;2022-12-24T10:51:10;200.17;;;132.07;;
6432;SDS011;3249;42.690;23.260;2022-12-24T10:53:45;193.43;;;128.70;;
6432;SDS011;3249;42.690;23.260;2022-12-24T10:56:19;189.87;;;125.17;;
6432;SDS011;3249;42.690;23.260;2022-12-24T10:58:50;190.73;;;122.63;;
6432;SDS011;3249;42.690;23.260;2022-12-24T11:01:20;165.13;;;106.47;;
6432;SDS011;3249;42.690;23.260;2022-12-24T11:04:17;158.20;;;101.10;;
6432;SDS011;3249;42.690;23.260;2022-12-24T11:06:50;168.67;;;102.07;;
6432;SDS011;3249;42.690;23.260;2022-12-24T11:09:21;159.77;;;107.37;;
6432;SDS011;3249;42.690;23.260;2022-12-24T11:11:52;174.00;;;111.03;;
6432;SDS011;3249;42.690;23.260;2022-12-24T11:14:23;181.73;;;119.07;;
6432;SDS011;3249;42.690;23.260;2022-12-24T11:17:01;204.73;;;124.30;;
6432;SDS011;3249;42.690;23.260;2022-12-24T11:19:33;184.80;;;116.87;;
6432;SDS011;3249;42.690;23.260;2022-12-24T11:22:06;163.07;;;111.23;;
6432;SDS011;3249;42.690;23.260;2022-12-24T11:24:44;163.03;;;106.57;;
6432;SDS011;3249;42.690;23.260;2022-12-24T11:27:30;151.30;;;97.23;;
6432;SDS011;3249;42.690;23.260;2022-12-24T11:30:12;148.73;;;102.40;;
6432;SDS011;3249;42.690;23.260;2022-12-24T11:32:50;151.20;;;95.70;;
6432;SDS011;3249;42.690;23.260;2022-12-24T11:35:59;148.97;;;98.47;;
6432;SDS011;3249;42.690;23.260;2022-12-24T11:38:31;130.10;;;85.27;;
6432;SDS011;3249;42.690;23.260;2022-12-24T11:41:05;114.30;;;77.70;;
6432;SDS011;3249;42.690;23.260;2022-12-24T11:43:39;112.70;;;78.33;;
6432;SDS011;3249;42.690;23.260;2022-12-24T11:46:14;113.07;;;76.73;;
6432;SDS011;3249;42.690;23.260;2022-12-24T11:48:48;101.43;;;74.67;;
6432;SDS011;3249;42.690;23.260;2022-12-24T11:51:36;110.47;;;75.00;;
6432;SDS011;3249;42.690;23.260;2022-12-24T11:54:08;98.17;;;70.03;;
6432;SDS011;3249;42.690;23.260;2022-12-24T11:56:44;96.80;;;66.20;;
6432;SDS011;3249;42.690;23.260;2022-12-24T11:59:18;88.63;;;64.30;;
6432;SDS011;3249;42.690;23.260;2022-12-24T12:01:52;95.23;;;63.67;;
6432;SDS011;3249;42.690;23.260;2022-12-24T12:04:26;93.87;;;61.93;;
6432;SDS011;3249;42.690;23.260;2022-12-24T12:07:02;85.43;;;61.00;;
6432;SDS011;3249;42.690;23.260;2022-12-24T12:09:36;92.10;;;61.73;;
6432;SDS011;3249;42.690;23.260;2022-12-24T12:12:11;96.80;;;68.57;;
6432;SDS011;3249;42.690;23.260;2022-12-24T12:14:44;94.17;;;67.70;;
6432;SDS011;3249;42.690;23.260;2022-12-24T12:17:21;93.97;;;67.43;;
6432;SDS011;3249;42.690;23.260;2022-12-24T12:19:58;92.73;;;65.37;;
6432;SDS011;3249;42.690;23.260;2022-12-24T12:22:36;101.07;;;68.67;;
6432;SDS011;3249;42.690;23.260;2022-12-24T12:25:16;89.47;;;58.73;;
6432;SDS011;3249;42.690;23.260;2022-12-24T12:27:50;85.47;;;61.87;;
6432;SDS011;3249;42.690;23.260;2022-12-24T12:30:21;98.90;;;70.60;;
6432;SDS011;3249;42.690;23.260;2022-12-24T12:32:52;82.73;;;59.07;;
6432;SDS011;3249;42.690;23.260;2022-12-24T12:35:28;78.57;;;54.33;;
6432;SDS011;3249;42.690;23.260;2022-12-24T12:38:03;135.93;;;95.80;;
6432;SDS011;3249;42.690;23.260;2022-12-24T12:43:36;79.83;;;53.70;;
6432;SDS011;3249;42.690;23.260;2022-12-24T12:46:20;89.57;;;61.63;;
6432;SDS011;3249;42.690;23.260;2022-12-24T12:49:02;63.93;;;46.37;;
6432;SDS011;3249;42.690;23.260;2022-12-24T12:51:41;82.00;;;50.73;;
6432;SDS011;3249;42.690;23.260;2022-12-24T12:54:27;58.43;;;41.50;;
6432;SDS011;3249;42.690;23.260;2022-12-24T12:57:06;47.50;;;35.17;;
6432;SDS011;3249;42.690;23.260;2022-12-24T12:59:39;43.57;;;32.43;;
6432;SDS011;3249;42.690;23.260;2022-12-24T13:02:17;54.63;;;32.07;;
6432;SDS011;3249;42.690;23.260;2022-12-24T13:08:19;46.13;;;33.80;;
6432;SDS011;3249;42.690;23.260;2022-12-24T13:11:27;88.83;;;56.97;;
6432;SDS011;3249;42.690;23.260;2022-12-24T13:14:19;68.17;;;46.93;;
6432;SDS011;3249;42.690;23.260;2022-12-24T13:17:19;70.80;;;40.67;;
6432;SDS011;3249;42.690;23.260;2022-12-24T13:20:07;54.07;;;37.00;;
6432;SDS011;3249;42.690;23.260;2022-12-24T13:22:48;48.17;;;34.37;;
6432;SDS011;3249;42.690;23.260;2022-12-24T13:25:22;45.37;;;34.00;;
6432;SDS011;3249;42.690;23.260;2022-12-24T13:27:57;51.87;;;35.63;;
6432;SDS011;3249;42.690;23.260;2022-12-24T13:30:43;52.93;;;36.67;;
6432;SDS011;3249;42.690;23.260;2022-12-24T13:33:12;49.63;;;33.53;;
6432;SDS011;3249;42.690;23.260;2022-12-24T13:36:02;45.53;;;35.20;;
6432;SDS011;3249;42.690;23.260;2022-12-24T13:38:33;55.87;;;39.87;;
6432;SDS011;3249;42.690;23.260;2022-12-24T13:44:25;72.57;;;50.50;;
6432;SDS011;3249;42.690;23.260;2022-12-24T13:47:02;52.03;;;38.63;;
6432;SDS011;3249;42.690;23.260;2022-12-24T13:50:06;52.37;;;38.07;;
6432;SDS011;3249;42.690;23.260;2022-12-24T13:52:49;52.20;;;37.50;;
6432;SDS011;3249;42.690;23.260;2022-12-24T13:55:20;56.83;;;38.73;;
6432;SDS011;3249;42.690;23.260;2022-12-24T13:57:54;51.17;;;37.87;;
6432;SDS011;3249;42.690;23.260;2022-12-24T14:00:36;52.80;;;36.80;;
6432;SDS011;3249;42.690;23.260;2022-12-24T14:03:18;45.23;;;33.40;;
6432;SDS011;3249;42.690;23.260;2022-12-24T14:06:00;46.37;;;33.93;;
6432;SDS011;3249;42.690;23.260;2022-12-24T14:08:34;54.00;;;37.13;;
6432;SDS011;3249;42.690;23.260;2022-12-24T14:11:08;50.27;;;36.13;;
6432;SDS011;3249;42.690;23.260;2022-12-24T14:16:46;42.10;;;32.13;;
6432;SDS011;3249;42.690;23.260;2022-12-24T14:19:18;55.97;;;40.83;;
6432;SDS011;3249;42.690;23.260;2022-12-24T14:21:50;44.77;;;33.10;;
6432;SDS011;3249;42.690;23.260;2022-12-24T14:24:24;49.57;;;35.33;;
6432;SDS011;3249;42.690;23.260;2022-12-24T14:26:59;39.33;;;27.53;;
6432;SDS011;3249;42.690;23.260;2022-12-24T14:29:37;65.07;;;40.90;;
6432;SDS011;3249;42.690;23.260;2022-12-24T14:32:16;58.53;;;38.27;;
6432;SDS011;3249;42.690;23.260;2022-12-24T14:34:46;49.13;;;35.20;;
6432;SDS011;3249;42.690;23.260;2022-12-24T14:37:32;64.30;;;41.50;;
6432;SDS011;3249;42.690;23.260;2022-12-24T14:40:02;48.63;;;32.57;;
6432;SDS011;3249;42.690;23.260;2022-12-24T14:42:38;34.63;;;24.73;;
6432;SDS011;3249;42.690;23.260;2022-12-24T14:45:16;30.93;;;22.07;;
6432;SDS011;3249;42.690;23.260;2022-12-24T14:47:57;43.13;;;27.70;;
6432;SDS011;3249;42.690;23.260;2022-12-24T14:50:42;51.80;;;33.23;;
6432;SDS011;3249;42.690;23.260;2022-12-24T14:53:22;20.90;;;15.93;;
6432;SDS011;3249;42.690;23.260;2022-12-24T14:55:56;20.83;;;13.23;;
6432;SDS011;3249;42.690;23.260;2022-12-24T14:58:25;13.57;;;10.67;;
6432;SDS011;3249;42.690;23.260;2022-12-24T15:00:56;12.30;;;10.80;;
6432;SDS011;3249;42.690;23.260;2022-12-24T15:03:30;15.03;;;11.37;;
6432;SDS011;3249;42.690;23.260;2022-12-24T15:05:59;12.37;;;10.47;;
6432;SDS011;3249;42.690;23.260;2022-12-24T15:08:32;14.43;;;10.17;;
6432;SDS011;3249;42.690;23.260;2022-12-24T15:11:06;16.83;;;13.57;;
6432;SDS011;3249;42.690;23.260;2022-12-24T15:13:38;14.57;;;10.90;;
6432;SDS011;3249;42.690;23.260;2022-12-24T15:16:09;12.37;;;10.03;;
6432;SDS011;3249;42.690;23.260;2022-12-24T15:18:44;15.23;;;12.07;;
6432;SDS011;3249;42.690;23.260;2022-12-24T15:21:19;16.87;;;12.90;;